Norden-Norddeich Airport

EDWS · 下萨克森, 德国

罗盘
风向 的 风向 的 风向 到 风向 320° Norden-Norddeich Airport 16/34
风: 6 kt, 2 beaufort

6 kt

2 kt
改变
0 1.000 2.000 3.000 4.000 5.000
FEW 1.900 ft
SCT 2.800 ft
BKN 4.200 ft
METAR EHHW 071625Z AUTO 32006KT 290V350 9999 FEW019/// SCT028/// BKN042/// 06/01 Q1010

METAR Norden-Norddeich Airport - EDWS/NOD

Norden-Norddeich Airport是,德国中的小机场。 该机场有一条跑道: 16/34. 该领域的国际民航组织标志是EDWS 它的国际航空运输协会代码是NOD.

这份报告是针对2022年12月7日 17:25, 当地时间在Buitengaats / BG-OHVS2 Helipad进行的。

机场观察

风向为320°,速度为6 kt。 风向在290°和350°之间变化。

可见度为10 km 或者更多。

有几云在1.900 ft的高度, 疏云,零星散落的云朵在2.800 ft的高度 和 碎云在4.200 ft的高度。 破损或更高的上限为4.200 ft。

温度为6 °C,阵风为2 °C。 露点为1 °C,相对湿度为71%。 海平面上的气压为1010 hPa (QNH)。

白天

今天,太阳从08:33升起,在16:12降落。 这适用于Norden-Norddeich Airport,世界夏令时可能有所不同。 当地时间与世界标准时间之间的时差为+1 小时。 当前,没有夏令时有效。

公司介绍

我们没有关于这个机场的公司信息。

体会

到Vliegles.nl去找飞行课程,跳伞和其他飞行体验。 浏览页面,了解Norden-Norddeich Airport附近所有可用的活动。 你也可以使用搜索功能来寻找你所在地附近的特定飞行课程、跳伞或其他飞行体验。

跑道

Id 标题 侧风 逆风 侧风 %
16/34 159°-339° 2 kt 6 kt 33 %

逆风成分最大的方向会被突出显示,并用于横风计算。 这并不一定意味着这个方向在使用。

乌云

1.900 ft FEW 几云
2.800 ft SCT 疏云,零星散落的云朵
4.200 ft BKN 碎云

温度 & 天气

温度 6 °C
露点 1 °C
相对湿度 71%
风寒 2 °C
Kp-index 3 (0-9)

白天

日出
08:39 (14:45)
中午
12:27
日落
16:14

小工具

你想在你的网站上有一个关于Norden-Norddeich Airport的当前航空天气(METAR)的小部件吗?

显示HTML代码

我们和第三方通过cookies跟踪您在我们网站上的互联网行为。如果你继续,我们认为你同意我们的饼干政策